createdAt,value
2018-09-14T00:00:02.164Z,18.36
2018-09-14T00:00:06.473Z,18.36
2018-09-14T00:00:10.672Z,18.36
2018-09-14T00:00:14.875Z,18.36
2018-09-14T00:00:18.965Z,18.36
2018-09-14T00:00:23.158Z,18.36
2018-09-14T00:00:27.264Z,18.36
2018-09-14T00:00:31.460Z,18.35
2018-09-14T00:00:35.552Z,18.36
2018-09-14T00:00:39.896Z,18.36
2018-09-14T00:00:43.879Z,18.35
2018-09-14T00:00:48.080Z,18.36
2018-09-14T00:00:52.396Z,18.36
2018-09-14T00:00:56.593Z,18.36
2018-09-14T00:01:00.807Z,18.35
2018-09-14T00:01:04.855Z,18.36
2018-09-14T00:01:09.164Z,18.36
2018-09-14T00:01:13.481Z,18.36
2018-09-14T00:01:17.682Z,18.36
2018-09-14T00:01:21.884Z,18.36
2018-09-14T00:01:25.986Z,18.35
2018-09-14T00:01:30.081Z,18.35
2018-09-14T00:01:34.279Z,18.35
2018-09-14T00:01:38.586Z,18.35
2018-09-14T00:01:42.798Z,18.34
2018-09-14T00:01:46.890Z,18.34
2018-09-14T00:01:50.983Z,18.34
2018-09-14T00:01:55.186Z,18.34
2018-09-14T00:01:59.288Z,18.34
2018-09-14T00:02:03.385Z,18.34
2018-09-14T00:02:07.696Z,18.34
2018-09-14T00:02:11.899Z,18.34
2018-09-14T00:02:16.099Z,18.34
2018-09-14T00:02:20.408Z,18.33
2018-09-14T00:02:24.613Z,18.33
2018-09-14T00:02:28.705Z,18.33
2018-09-14T00:02:32.794Z,18.33
2018-09-14T00:02:37.006Z,18.33
2018-09-14T00:02:41.258Z,18.33
2018-09-14T00:02:45.571Z,18.33
2018-09-14T00:02:49.894Z,18.33
2018-09-14T00:02:54.095Z,18.33
2018-09-14T00:02:58.306Z,18.33
2018-09-14T00:03:02.394Z,18.32
2018-09-14T00:03:06.496Z,18.32
2018-09-14T00:03:10.811Z,18.33
2018-09-14T00:03:15.126Z,18.33
2018-09-14T00:03:19.430Z,18.32
2018-09-14T00:03:23.520Z,18.33
2018-09-14T00:03:27.881Z,18.33
2018-09-14T00:03:31.974Z,18.33
2018-09-14T00:03:36.281Z,18.33
2018-09-14T00:03:40.596Z,18.31
2018-09-14T00:03:44.795Z,18.32
2018-09-14T00:03:48.996Z,18.32
2018-09-14T00:03:53.105Z,18.32
2018-09-14T00:03:57.201Z,18.32
2018-09-14T00:04:01.230Z,18.31
2018-09-14T00:04:05.331Z,18.32
2018-09-14T00:04:09.643Z,18.32
2018-09-14T00:04:13.846Z,18.31
2018-09-14T00:04:18.163Z,18.31
2018-09-14T00:04:22.469Z,18.31
2018-09-14T00:04:26.676Z,18.31
2018-09-14T00:04:30.779Z,18.31
2018-09-14T00:04:34.928Z,18.31
2018-09-14T00:04:39.129Z,18.32
2018-09-14T00:04:43.448Z,18.32
2018-09-14T00:04:47.653Z,18.31
2018-09-14T00:04:51.751Z,18.31
2018-09-14T00:04:56.060Z,18.31
2018-09-14T00:05:00.209Z,18.31
2018-09-14T00:05:04.313Z,18.3
2018-09-14T00:05:08.623Z,18.3
2018-09-14T00:05:12.823Z,18.31
2018-09-14T00:05:16.918Z,18.31
2018-09-14T00:05:21.125Z,18.31
2018-09-14T00:05:25.333Z,18.3
2018-09-14T00:05:29.645Z,18.3
2018-09-14T00:05:33.741Z,18.3
2018-09-14T00:05:37.940Z,18.3
2018-09-14T00:05:42.256Z,18.29
2018-09-14T00:05:46.593Z,18.3
2018-09-14T00:05:50.899Z,18.3
2018-09-14T00:05:54.994Z,18.3
2018-09-14T00:05:59.295Z,18.3
2018-09-14T00:06:03.499Z,18.3
2018-09-14T00:06:07.719Z,18.3
2018-09-14T00:06:11.910Z,18.3
2018-09-14T00:06:16.220Z,18.29
2018-09-14T00:06:20.528Z,18.3
2018-09-14T00:06:24.633Z,18.29
2018-09-14T00:06:28.943Z,18.29
2018-09-14T00:06:33.039Z,18.29
2018-09-14T00:06:37.245Z,18.29
2018-09-14T00:06:41.439Z,18.29
2018-09-14T00:06:45.533Z,18.29
2018-09-14T00:06:49.734Z,18.29
2018-09-14T00:06:54.039Z,18.29
2018-09-14T00:06:58.364Z,18.29
2018-09-14T00:07:02.665Z,18.28
2018-09-14T00:07:06.967Z,18.29
2018-09-14T00:07:11.273Z,18.28
2018-09-14T00:07:15.471Z,18.28
2018-09-14T00:07:19.777Z,18.29
2018-09-14T00:07:23.983Z,18.28
2018-09-14T00:07:28.186Z,18.29
2018-09-14T00:07:32.389Z,18.29
2018-09-14T00:07:36.594Z,18.29
2018-09-14T00:07:40.895Z,18.29
2018-09-14T00:07:45.094Z,18.29
2018-09-14T00:07:49.292Z,18.29
2018-09-14T00:07:53.496Z,18.29
2018-09-14T00:07:57.803Z,18.29
2018-09-14T00:08:02.109Z,18.3
2018-09-14T00:08:06.201Z,18.29
2018-09-14T00:08:10.510Z,18.29
2018-09-14T00:08:14.821Z,18.29
2018-09-14T00:08:19.021Z,18.3
2018-09-14T00:08:23.328Z,18.29
2018-09-14T00:08:27.644Z,18.28
2018-09-14T00:08:31.953Z,18.3
2018-09-14T00:08:36.269Z,18.3
2018-09-14T00:08:40.363Z,18.29
2018-09-14T00:08:44.685Z,18.29
2018-09-14T00:08:48.885Z,18.29
2018-09-14T00:08:53.088Z,18.29
2018-09-14T00:08:57.176Z,18.29
2018-09-14T00:09:01.378Z,18.29
2018-09-14T00:09:05.477Z,18.28
2018-09-14T00:09:09.783Z,18.28
2018-09-14T00:09:13.989Z,18.28
2018-09-14T00:09:18.226Z,18.28
2018-09-14T00:09:22.533Z,18.28
2018-09-14T00:09:26.415Z,18.27
2018-09-14T00:09:30.523Z,18.28
2018-09-14T00:09:34.830Z,18.27
2018-09-14T00:09:38.816Z,18.28
2018-09-14T00:09:43.025Z,18.28
2018-09-14T00:09:47.335Z,18.27
2018-09-14T00:09:51.318Z,18.28
2018-09-14T00:09:55.512Z,18.28
2018-09-14T00:09:59.831Z,18.27
2018-09-14T00:10:03.927Z,18.28
2018-09-14T00:10:08.236Z,18.28
2018-09-14T00:10:12.559Z,18.28
2018-09-14T00:10:16.762Z,18.28
2018-09-14T00:10:20.858Z,18.28
2018-09-14T00:10:25.159Z,18.27
2018-09-14T00:10:29.460Z,18.28
2018-09-14T00:10:33.660Z,18.28
2018-09-14T00:10:37.965Z,18.28
2018-09-14T00:10:42.267Z,18.27
2018-09-14T00:10:46.476Z,18.27
2018-09-14T00:10:50.685Z,18.28
2018-09-14T00:10:54.901Z,18.27
2018-09-14T00:10:59.203Z,18.28
2018-09-14T00:11:03.522Z,18.27
2018-09-14T00:11:07.825Z,18.27
2018-09-14T00:11:11.809Z,18.27
2018-09-14T00:11:16.161Z,18.27
2018-09-14T00:11:20.363Z,18.27
2018-09-14T00:11:24.486Z,18.27
2018-09-14T00:11:28.700Z,18.28
2018-09-14T00:11:33.004Z,18.28
2018-09-14T00:11:37.202Z,18.28
2018-09-14T00:11:41.512Z,18.27
2018-09-14T00:11:45.718Z,18.27
2018-09-14T00:11:49.915Z,18.27
2018-09-14T00:11:54.117Z,18.27
2018-09-14T00:11:58.311Z,18.28
2018-09-14T00:12:02.412Z,18.27
2018-09-14T00:12:06.722Z,18.27
2018-09-14T00:12:10.926Z,18.27
2018-09-14T00:12:15.172Z,18.27
2018-09-14T00:12:19.479Z,18.27
2018-09-14T00:12:23.679Z,18.28
2018-09-14T00:12:27.996Z,18.27
2018-09-14T00:12:32.098Z,18.27
2018-09-14T00:12:36.302Z,18.27
2018-09-14T00:12:40.634Z,18.27
2018-09-14T00:12:44.948Z,18.27
2018-09-14T00:12:49.049Z,18.27
2018-09-14T00:12:53.259Z,18.27
2018-09-14T00:12:57.576Z,18.27
2018-09-14T00:13:01.884Z,18.27
2018-09-14T00:13:05.978Z,18.27
2018-09-14T00:13:10.180Z,18.27
2018-09-14T00:13:14.494Z,18.27
2018-09-14T00:13:18.811Z,18.27
2018-09-14T00:13:23.009Z,18.27
2018-09-14T00:13:27.220Z,18.26
2018-09-14T00:13:31.533Z,18.26
2018-09-14T00:13:35.739Z,18.27
2018-09-14T00:13:39.837Z,18.27
2018-09-14T00:13:44.142Z,18.26
2018-09-14T00:13:48.455Z,18.26
2018-09-14T00:13:52.759Z,18.27
2018-09-14T00:13:56.850Z,18.26
2018-09-14T00:14:01.047Z,18.26
2018-09-14T00:14:05.153Z,18.26
2018-09-14T00:14:09.252Z,18.26
2018-09-14T00:14:13.355Z,18.26
2018-09-14T00:14:17.558Z,18.26
2018-09-14T00:14:21.651Z,18.26
2018-09-14T00:14:25.855Z,18.26
2018-09-14T00:14:30.049Z,18.26
2018-09-14T00:14:34.252Z,18.26
2018-09-14T00:14:38.558Z,18.25
2018-09-14T00:14:42.761Z,18.26
2018-09-14T00:14:46.961Z,18.25
2018-09-14T00:14:51.169Z,18.25
2018-09-14T00:14:55.479Z,18.26
2018-09-14T00:14:59.683Z,18.26
2018-09-14T00:15:03.774Z,18.26
2018-09-14T00:15:08.077Z,18.26
2018-09-14T00:15:12.278Z,18.26
2018-09-14T00:15:16.265Z,18.26
2018-09-14T00:15:20.468Z,18.26
2018-09-14T00:15:24.563Z,18.26
2018-09-14T00:15:28.874Z,18.26
2018-09-14T00:15:33.177Z,18.26
2018-09-14T00:15:37.274Z,18.25
2018-09-14T00:15:41.472Z,18.26
2018-09-14T00:15:45.777Z,18.26
2018-09-14T00:15:50.080Z,18.26
2018-09-14T00:15:54.284Z,18.25
2018-09-14T00:15:58.593Z,18.26
2018-09-14T00:16:02.699Z,18.26
2018-09-14T00:16:07.006Z,18.26
2018-09-14T00:16:11.315Z,18.25
2018-09-14T00:16:15.407Z,18.25
2018-09-14T00:16:19.715Z,18.25
2018-09-14T00:16:24.022Z,18.25
2018-09-14T00:16:28.332Z,18.25
2018-09-14T00:16:32.530Z,18.24
2018-09-14T00:16:36.618Z,18.24
2018-09-14T00:16:40.827Z,18.25
2018-09-14T00:16:45.142Z,18.24
2018-09-14T00:16:49.456Z,18.24
2018-09-14T00:16:53.668Z,18.24
2018-09-14T00:16:57.872Z,18.24
2018-09-14T00:17:02.080Z,18.24
2018-09-14T00:17:06.391Z,18.23
2018-09-14T00:17:10.698Z,18.24
2018-09-14T00:17:15.016Z,18.23
2018-09-14T00:17:19.221Z,18.24
2018-09-14T00:17:23.315Z,18.23
2018-09-14T00:17:27.619Z,18.23
2018-09-14T00:17:31.728Z,18.23
2018-09-14T00:17:36.040Z,18.22
2018-09-14T00:17:40.242Z,18.23
2018-09-14T00:17:44.443Z,18.22
2018-09-14T00:17:48.543Z,18.22
2018-09-14T00:17:52.748Z,18.22
2018-09-14T00:17:57.118Z,18.22
2018-09-14T00:18:01.322Z,18.22
2018-09-14T00:18:05.310Z,18.23
2018-09-14T00:18:09.612Z,18.21
2018-09-14T00:18:13.917Z,18.22
2018-09-14T00:18:18.222Z,18.21
2018-09-14T00:18:22.425Z,18.22
2018-09-14T00:18:26.542Z,18.21
2018-09-14T00:18:30.852Z,18.21
2018-09-14T00:18:35.058Z,18.21
2018-09-14T00:18:39.255Z,18.2
2018-09-14T00:18:43.564Z,18.2
2018-09-14T00:18:47.764Z,18.2
2018-09-14T00:18:51.977Z,18.2
2018-09-14T00:18:56.179Z,18.2
2018-09-14T00:19:00.387Z,18.19
2018-09-14T00:19:04.693Z,18.2
2018-09-14T00:19:09.006Z,18.19
2018-09-14T00:19:13.210Z,18.19
2018-09-14T00:19:17.516Z,18.19
2018-09-14T00:19:21.823Z,18.19
2018-09-14T00:19:26.155Z,18.19
2018-09-14T00:19:30.468Z,18.19
2018-09-14T00:19:34.666Z,18.19
2018-09-14T00:19:38.982Z,18.18
2018-09-14T00:19:43.073Z,18.19
2018-09-14T00:19:47.272Z,18.19
2018-09-14T00:19:51.372Z,18.18
2018-09-14T00:19:55.678Z,18.19
2018-09-14T00:19:59.984Z,18.17
2018-09-14T00:20:04.196Z,18.17
2018-09-14T00:20:08.400Z,18.17
2018-09-14T00:20:12.708Z,18.16
2018-09-14T00:20:16.804Z,18.17
2018-09-14T00:20:21.003Z,18.17
2018-09-14T00:20:25.308Z,18.16
2018-09-14T00:20:29.506Z,18.15
2018-09-14T00:20:33.495Z,18.16
2018-09-14T00:20:37.695Z,18.16
2018-09-14T00:20:41.893Z,18.15
2018-09-14T00:20:46.090Z,18.15
2018-09-14T00:20:50.185Z,18.15
2018-09-14T00:20:54.275Z,18.15
2018-09-14T00:20:58.378Z,18.14
2018-09-14T00:21:02.583Z,18.14
2018-09-14T00:21:06.780Z,18.14
2018-09-14T00:21:11.083Z,18.14
2018-09-14T00:21:15.279Z,18.14
2018-09-14T00:21:19.588Z,18.13
2018-09-14T00:21:23.791Z,18.13
2018-09-14T00:21:27.999Z,18.13
2018-09-14T00:21:32.209Z,18.13
2018-09-14T00:21:36.521Z,18.13
2018-09-14T00:21:40.616Z,18.13
2018-09-14T00:21:44.827Z,18.12
2018-09-14T00:21:49.028Z,18.13
2018-09-14T00:21:53.331Z,18.12
2018-09-14T00:21:57.425Z,18.11
2018-09-14T00:22:01.732Z,18.12
2018-09-14T00:22:05.629Z,18.12
2018-09-14T00:22:09.938Z,18.11
2018-09-14T00:22:14.249Z,18.12
2018-09-14T00:22:18.566Z,18.11
2018-09-14T00:22:22.549Z,18.11
2018-09-14T00:22:26.849Z,18.1
2018-09-14T00:22:30.944Z,18.11
2018-09-14T00:22:35.146Z,18.1
2018-09-14T00:22:39.453Z,18.1
2018-09-14T00:22:43.761Z,18.1
2018-09-14T00:22:48.069Z,18.09
2018-09-14T00:22:52.373Z,18.1
2018-09-14T00:22:56.675Z,18.09
2018-09-14T00:23:00.979Z,18.09
2018-09-14T00:23:05.075Z,18.08
2018-09-14T00:23:09.289Z,18.07
2018-09-14T00:23:13.495Z,18.08
2018-09-14T00:23:17.698Z,18.07
2018-09-14T00:23:21.896Z,18.07
2018-09-14T00:23:26.199Z,18.07
2018-09-14T00:23:30.401Z,18.06
2018-09-14T00:23:34.603Z,18.06
2018-09-14T00:23:38.808Z,18.05
2018-09-14T00:23:43.124Z,18.06
2018-09-14T00:23:47.215Z,18.05
2018-09-14T00:23:51.533Z,18.05
2018-09-14T00:23:55.744Z,18.05
2018-09-14T00:24:00.049Z,18.05
2018-09-14T00:24:04.037Z,18.04
2018-09-14T00:24:08.238Z,18.04
2018-09-14T00:24:12.565Z,18.04
2018-09-14T00:24:16.875Z,18.03
2018-09-14T00:24:21.179Z,18.03
2018-09-14T00:24:25.383Z,18.02
2018-09-14T00:24:29.589Z,18.02
2018-09-14T00:24:33.902Z,18.03
2018-09-14T00:24:38.212Z,18.02
2018-09-14T00:24:42.523Z,18.01
2018-09-14T00:24:46.833Z,18.02
2018-09-14T00:24:50.922Z,18.01
2018-09-14T00:24:55.141Z,18.01
2018-09-14T00:24:59.337Z,18
2018-09-14T00:25:03.442Z,18
2018-09-14T00:25:07.755Z,17.99
2018-09-14T00:25:12.075Z,17.99
2018-09-14T00:25:16.283Z,17.99
2018-09-14T00:25:20.599Z,17.98
2018-09-14T00:25:24.914Z,17.98
2018-09-14T00:25:29.121Z,17.98
2018-09-14T00:25:33.330Z,17.98
2018-09-14T00:25:37.647Z,17.98
2018-09-14T00:25:41.871Z,17.97
2018-09-14T00:25:46.079Z,17.97
2018-09-14T00:25:50.180Z,17.97
2018-09-14T00:25:54.480Z,17.97
2018-09-14T00:25:58.786Z,17.96
2018-09-14T00:26:02.991Z,17.95
2018-09-14T00:26:07.301Z,17.96
2018-09-14T00:26:11.507Z,17.95
2018-09-14T00:26:15.813Z,17.95
2018-09-14T00:26:19.913Z,17.94
2018-09-14T00:26:24.112Z,17.95
2018-09-14T00:26:28.209Z,17.94
2018-09-14T00:26:32.425Z,17.94
2018-09-14T00:26:36.624Z,17.94
2018-09-14T00:26:40.719Z,17.93
2018-09-14T00:26:45.039Z,17.93
2018-09-14T00:26:49.137Z,17.93
2018-09-14T00:26:53.351Z,17.92
2018-09-14T00:26:57.558Z,17.91
2018-09-14T00:27:01.866Z,17.91
2018-09-14T00:27:05.849Z,17.91
2018-09-14T00:27:10.045Z,17.91
2018-09-14T00:27:14.250Z,17.91
2018-09-14T00:27:18.455Z,17.9
2018-09-14T00:27:22.769Z,17.9
2018-09-14T00:27:26.967Z,17.9
2018-09-14T00:27:31.065Z,17.9
2018-09-14T00:27:35.268Z,17.9
2018-09-14T00:27:39.485Z,17.89
2018-09-14T00:27:43.793Z,17.88
2018-09-14T00:27:48.106Z,17.88
2018-09-14T00:27:52.313Z,17.88
2018-09-14T00:27:56.624Z,17.87
2018-09-14T00:28:00.726Z,17.87
2018-09-14T00:28:04.828Z,17.87
2018-09-14T00:28:09.144Z,17.87
2018-09-14T00:28:13.246Z,17.87
2018-09-14T00:28:17.563Z,17.87
2018-09-14T00:28:21.772Z,17.86
2018-09-14T00:28:26.099Z,17.86
2018-09-14T00:28:30.411Z,17.86
2018-09-14T00:28:34.518Z,17.86
2018-09-14T00:28:38.718Z,17.85
2018-09-14T00:28:42.723Z,17.85
2018-09-14T00:28:47.043Z,17.85
2018-09-14T00:28:51.141Z,17.84
2018-09-14T00:28:55.451Z,17.84
2018-09-14T00:28:59.658Z,17.83
2018-09-14T00:29:04.188Z,17.83
2018-09-14T00:29:08.387Z,17.83
2018-09-14T00:29:12.635Z,17.82
2018-09-14T00:29:16.838Z,17.82
2018-09-14T00:29:21.036Z,17.81
2018-09-14T00:29:25.347Z,17.81
2018-09-14T00:29:29.560Z,17.81
2018-09-14T00:29:33.878Z,17.81
2018-09-14T00:29:37.980Z,17.8
2018-09-14T00:29:42.292Z,17.81
2018-09-14T00:29:46.610Z,17.8
2018-09-14T00:29:50.805Z,17.79
2018-09-14T00:29:54.897Z,17.8
2018-09-14T00:29:59.215Z,17.8
2018-09-14T00:30:03.329Z,17.79
2018-09-14T00:30:07.535Z,17.78
2018-09-14T00:30:11.729Z,17.78
2018-09-14T00:30:15.927Z,17.78
2018-09-14T00:30:20.015Z,17.78
2018-09-14T00:30:24.215Z,17.77
2018-09-14T00:30:28.202Z,17.78
2018-09-14T00:30:32.406Z,17.77
2018-09-14T00:30:36.756Z,17.77
2018-09-14T00:30:41.064Z,17.76
2018-09-14T00:30:45.269Z,17.76
2018-09-14T00:30:49.466Z,17.76
2018-09-14T00:30:53.772Z,17.75
2018-09-14T00:30:57.863Z,17.75
2018-09-14T00:31:01.961Z,17.75
2018-09-14T00:31:06.052Z,17.75
2018-09-14T00:31:10.262Z,17.74
2018-09-14T00:31:14.576Z,17.74
2018-09-14T00:31:18.781Z,17.73
2018-09-14T00:31:22.979Z,17.73
2018-09-14T00:31:27.074Z,17.74
2018-09-14T00:31:31.383Z,17.73
2018-09-14T00:31:35.468Z,17.74
2018-09-14T00:31:39.774Z,17.73
2018-09-14T00:31:44.081Z,17.73
2018-09-14T00:31:48.282Z,17.72
2018-09-14T00:31:52.382Z,17.72
2018-09-14T00:31:56.606Z,17.71
2018-09-14T00:32:00.927Z,17.7
2018-09-14T00:32:05.139Z,17.71
2018-09-14T00:32:09.345Z,17.69
2018-09-14T00:32:13.548Z,17.69
2018-09-14T00:32:17.859Z,17.69
2018-09-14T00:32:22.161Z,17.69
2018-09-14T00:32:26.369Z,17.69
2018-09-14T00:32:30.361Z,17.69
2018-09-14T00:32:34.558Z,17.69
2018-09-14T00:32:38.870Z,17.68
2018-09-14T00:32:43.189Z,17.68
2018-09-14T00:32:47.387Z,17.67
2018-09-14T00:32:51.587Z,17.67
2018-09-14T00:32:55.889Z,17.67
2018-09-14T00:33:00.091Z,17.67
2018-09-14T00:33:04.243Z,17.66
2018-09-14T00:33:08.552Z,17.66
2018-09-14T00:33:12.860Z,17.65
2018-09-14T00:33:17.053Z,17.66
2018-09-14T00:33:21.251Z,17.66
2018-09-14T00:33:25.451Z,17.65
2018-09-14T00:33:29.552Z,17.64
2018-09-14T00:33:33.749Z,17.65
2018-09-14T00:33:38.058Z,17.64
2018-09-14T00:33:42.363Z,17.64
2018-09-14T00:33:46.563Z,17.63
2018-09-14T00:33:50.664Z,17.64
2018-09-14T00:33:54.755Z,17.63
2018-09-14T00:33:58.846Z,17.63
2018-09-14T00:34:02.973Z,17.64
2018-09-14T00:34:07.175Z,17.63
2018-09-14T00:34:11.275Z,17.62
2018-09-14T00:34:15.583Z,17.63
2018-09-14T00:34:19.577Z,17.62
2018-09-14T00:34:23.776Z,17.62
2018-09-14T00:34:27.765Z,17.61
2018-09-14T00:34:31.966Z,17.62
2018-09-14T00:34:36.058Z,17.62
2018-09-14T00:34:40.262Z,17.61
2018-09-14T00:34:44.572Z,17.61
2018-09-14T00:34:48.770Z,17.61
2018-09-14T00:34:52.968Z,17.61
2018-09-14T00:34:57.178Z,17.6
2018-09-14T00:35:01.485Z,17.6
2018-09-14T00:35:05.333Z,17.61
2018-09-14T00:35:09.651Z,17.6
2018-09-14T00:35:13.952Z,17.6
2018-09-14T00:35:18.140Z,17.59
2018-09-14T00:35:22.236Z,17.59
2018-09-14T00:35:26.436Z,17.59
2018-09-14T00:35:30.533Z,17.59
2018-09-14T00:35:34.840Z,17.6
2018-09-14T00:35:39.033Z,17.58
2018-09-14T00:35:43.233Z,17.58
2018-09-14T00:35:47.431Z,17.59
2018-09-14T00:35:51.744Z,17.58
2018-09-14T00:35:55.948Z,17.58
2018-09-14T00:36:00.251Z,17.58
2018-09-14T00:36:04.657Z,17.58
2018-09-14T00:36:08.852Z,17.58
2018-09-14T00:36:13.048Z,17.58
2018-09-14T00:36:17.350Z,17.56
2018-09-14T00:36:21.546Z,17.56
2018-09-14T00:36:25.852Z,17.57
2018-09-14T00:36:29.952Z,17.56
2018-09-14T00:36:34.155Z,17.57
2018-09-14T00:36:38.292Z,17.56
2018-09-14T00:36:42.384Z,17.55
2018-09-14T00:36:46.685Z,17.55
2018-09-14T00:36:50.944Z,17.55
2018-09-14T00:36:55.141Z,17.55
2018-09-14T00:36:59.448Z,17.55
2018-09-14T00:37:03.534Z,17.55
2018-09-14T00:37:07.741Z,17.54
2018-09-14T00:37:11.937Z,17.55
2018-09-14T00:37:16.242Z,17.54
2018-09-14T00:37:20.444Z,17.53
2018-09-14T00:37:24.432Z,17.53
2018-09-14T00:37:28.638Z,17.54
2018-09-14T00:37:32.732Z,17.53
2018-09-14T00:37:37.042Z,17.53
2018-09-14T00:37:41.244Z,17.53
2018-09-14T00:37:45.558Z,17.52
2018-09-14T00:37:49.759Z,17.53
2018-09-14T00:37:53.754Z,17.52
2018-09-14T00:37:58.063Z,17.52
2018-09-14T00:38:02.273Z,17.52
2018-09-14T00:38:06.475Z,17.52
2018-09-14T00:38:10.673Z,17.52
2018-09-14T00:38:14.872Z,17.5
2018-09-14T00:38:19.189Z,17.51
2018-09-14T00:38:23.398Z,17.51
2018-09-14T00:38:27.595Z,17.51
2018-09-14T00:38:31.794Z,17.51
2018-09-14T00:38:36.111Z,17.5
2018-09-14T00:38:40.203Z,17.5
2018-09-14T00:38:44.513Z,17.5
2018-09-14T00:38:48.818Z,17.5
2018-09-14T00:38:53.064Z,17.5
2018-09-14T00:38:57.384Z,17.5
2018-09-14T00:39:01.689Z,17.49
2018-09-14T00:39:05.891Z,17.49
2018-09-14T00:39:10.090Z,17.5
2018-09-14T00:39:14.429Z,17.49
2018-09-14T00:39:18.629Z,17.49
2018-09-14T00:39:22.834Z,17.49
2018-09-14T00:39:26.840Z,17.49
2018-09-14T00:39:31.051Z,17.49
2018-09-14T00:39:35.248Z,17.48
2018-09-14T00:39:39.452Z,17.48
2018-09-14T00:39:43.761Z,17.48
2018-09-14T00:39:47.971Z,17.48
2018-09-14T00:39:52.173Z,17.47
2018-09-14T00:39:56.375Z,17.47
2018-09-14T00:40:00.679Z,17.48
2018-09-14T00:40:04.946Z,17.46
2018-09-14T00:40:09.154Z,17.47
2018-09-14T00:40:13.464Z,17.47
2018-09-14T00:40:17.677Z,17.47
2018-09-14T00:40:21.873Z,17.45
2018-09-14T00:40:26.069Z,17.45
2018-09-14T00:40:30.376Z,17.45
2018-09-14T00:40:34.675Z,17.46
2018-09-14T00:40:38.872Z,17.46
2018-09-14T00:40:42.961Z,17.45
2018-09-14T00:40:47.267Z,17.46
2018-09-14T00:40:51.466Z,17.45
2018-09-14T00:40:55.778Z,17.46
2018-09-14T00:40:59.976Z,17.45
2018-09-14T00:41:03.962Z,17.45
2018-09-14T00:41:08.271Z,17.45
2018-09-14T00:41:12.573Z,17.45
2018-09-14T00:41:16.771Z,17.45
2018-09-14T00:41:21.075Z,17.44
2018-09-14T00:41:25.377Z,17.43
2018-09-14T00:41:29.579Z,17.44
2018-09-14T00:41:33.671Z,17.44
2018-09-14T00:41:37.872Z,17.44
2018-09-14T00:41:42.188Z,17.44
2018-09-14T00:41:46.500Z,17.44
2018-09-14T00:41:50.597Z,17.44
2018-09-14T00:41:54.920Z,17.44
2018-09-14T00:41:59.226Z,17.44
2018-09-14T00:42:03.325Z,17.42
2018-09-14T00:42:07.530Z,17.43
2018-09-14T00:42:11.638Z,17.43
2018-09-14T00:42:15.843Z,17.43
2018-09-14T00:42:20.048Z,17.43
2018-09-14T00:42:24.358Z,17.43
2018-09-14T00:42:28.450Z,17.42
2018-09-14T00:42:32.754Z,17.43
2018-09-14T00:42:36.847Z,17.42
2018-09-14T00:42:41.155Z,17.42
2018-09-14T00:42:45.363Z,17.42
2018-09-14T00:42:49.571Z,17.42
2018-09-14T00:42:53.768Z,17.42
2018-09-14T00:42:57.969Z,17.42
2018-09-14T00:43:02.067Z,17.42
2018-09-14T00:43:06.378Z,17.42
2018-09-14T00:43:10.478Z,17.42
2018-09-14T00:43:14.686Z,17.41
2018-09-14T00:43:18.933Z,17.41
2018-09-14T00:43:23.128Z,17.41
2018-09-14T00:43:27.433Z,17.41
2018-09-14T00:43:31.521Z,17.41
2018-09-14T00:43:35.843Z,17.41
2018-09-14T00:43:39.939Z,17.41
2018-09-14T00:43:44.154Z,17.4
2018-09-14T00:43:48.354Z,17.4
2018-09-14T00:43:52.449Z,17.4
2018-09-14T00:43:56.538Z,17.4
2018-09-14T00:44:00.520Z,17.4
2018-09-14T00:44:04.721Z,17.4
2018-09-14T00:44:08.823Z,17.4
2018-09-14T00:44:13.027Z,17.39
2018-09-14T00:44:17.229Z,17.39
2018-09-14T00:44:21.437Z,17.39
2018-09-14T00:44:25.740Z,17.39
2018-09-14T00:44:29.944Z,17.39
2018-09-14T00:44:34.161Z,17.38
2018-09-14T00:44:38.257Z,17.38
2018-09-14T00:44:42.468Z,17.38
2018-09-14T00:44:46.770Z,17.38
2018-09-14T00:44:50.866Z,17.39
2018-09-14T00:44:55.071Z,17.38
2018-09-14T00:44:59.377Z,17.36
2018-09-14T00:45:03.580Z,17.38
2018-09-14T00:45:07.685Z,17.37
2018-09-14T00:45:11.882Z,17.38
2018-09-14T00:45:16.188Z,17.38
2018-09-14T00:45:20.393Z,17.37
2018-09-14T00:45:24.379Z,17.37
2018-09-14T00:45:28.482Z,17.37
2018-09-14T00:45:32.788Z,17.37
2018-09-14T00:45:36.986Z,17.37
2018-09-14T00:45:41.185Z,17.37
2018-09-14T00:45:45.490Z,17.36
2018-09-14T00:45:49.696Z,17.36
2018-09-14T00:45:53.907Z,17.36
2018-09-14T00:45:58.101Z,17.36
2018-09-14T00:46:02.194Z,17.36
2018-09-14T00:46:06.393Z,17.36
2018-09-14T00:46:10.491Z,17.35
2018-09-14T00:46:14.792Z,17.34
2018-09-14T00:46:19.103Z,17.35
2018-09-14T00:46:23.300Z,17.34
2018-09-14T00:46:27.604Z,17.36
2018-09-14T00:46:31.913Z,17.34
2018-09-14T00:46:36.226Z,17.35
2018-09-14T00:46:40.535Z,17.34
2018-09-14T00:46:44.733Z,17.34
2018-09-14T00:46:49.042Z,17.34
2018-09-14T00:46:53.238Z,17.33
2018-09-14T00:46:57.335Z,17.34
2018-09-14T00:47:01.648Z,17.33
2018-09-14T00:47:05.740Z,17.34
2018-09-14T00:47:10.048Z,17.33
2018-09-14T00:47:14.356Z,17.33
2018-09-14T00:47:18.666Z,17.33
2018-09-14T00:47:22.865Z,17.33
2018-09-14T00:47:27.070Z,17.33
2018-09-14T00:47:31.488Z,17.32
2018-09-14T00:47:35.692Z,17.32
2018-09-14T00:47:39.996Z,17.32
2018-09-14T00:47:44.309Z,17.31
2018-09-14T00:47:48.627Z,17.32
2018-09-14T00:47:52.932Z,17.32
2018-09-14T00:47:56.925Z,17.31
2018-09-14T00:48:01.013Z,17.31
2018-09-14T00:48:05.109Z,17.31
2018-09-14T00:48:09.208Z,17.31
2018-09-14T00:48:13.416Z,17.31
2018-09-14T00:48:17.722Z,17.31
2018-09-14T00:48:22.025Z,17.31
2018-09-14T00:48:26.234Z,17.3
2018-09-14T00:48:30.436Z,17.31
2018-09-14T00:48:34.529Z,17.31
2018-09-14T00:48:38.733Z,17.3
2018-09-14T00:48:42.841Z,17.31
2018-09-14T00:48:46.936Z,17.31
2018-09-14T00:48:51.243Z,17.31
2018-09-14T00:48:55.444Z,17.3
2018-09-14T00:48:59.643Z,17.31
2018-09-14T00:49:03.838Z,17.3
2018-09-14T00:49:08.142Z,17.3
2018-09-14T00:49:12.341Z,17.3
2018-09-14T00:49:16.640Z,17.3
2018-09-14T00:49:20.940Z,17.3
2018-09-14T00:49:25.141Z,17.3
2018-09-14T00:49:29.451Z,17.3
2018-09-14T00:49:33.769Z,17.3
2018-09-14T00:49:37.872Z,17.3
2018-09-14T00:49:42.092Z,17.29
2018-09-14T00:49:46.441Z,17.3
2018-09-14T00:49:50.649Z,17.29
2018-09-14T00:49:54.855Z,17.29
2018-09-14T00:49:59.058Z,17.29
2018-09-14T00:50:03.370Z,17.28
2018-09-14T00:50:07.251Z,17.29
2018-09-14T00:50:11.565Z,17.29
2018-09-14T00:50:15.871Z,17.28
2018-09-14T00:50:20.069Z,17.28
2018-09-14T00:50:24.175Z,17.28
2018-09-14T00:50:28.385Z,17.28
2018-09-14T00:50:32.730Z,17.28
2018-09-14T00:50:36.824Z,17.28
2018-09-14T00:50:41.021Z,17.28
2018-09-14T00:50:45.214Z,17.27
2018-09-14T00:50:49.521Z,17.27
2018-09-14T00:50:53.723Z,17.27
2018-09-14T00:50:58.026Z,17.27
2018-09-14T00:51:02.131Z,17.27
2018-09-14T00:51:06.271Z,17.27
2018-09-14T00:51:10.474Z,17.26
2018-09-14T00:51:14.566Z,17.27
2018-09-14T00:51:18.774Z,17.26
2018-09-14T00:51:22.972Z,17.27
2018-09-14T00:51:27.176Z,17.26
2018-09-14T00:51:31.382Z,17.27
2018-09-14T00:51:35.585Z,17.27
2018-09-14T00:51:39.785Z,17.26
2018-09-14T00:51:43.980Z,17.27
2018-09-14T00:51:48.184Z,17.26
2018-09-14T00:51:52.274Z,17.26
2018-09-14T00:51:56.474Z,17.26
2018-09-14T00:52:00.782Z,17.26
2018-09-14T00:52:04.876Z,17.26
2018-09-14T00:52:08.868Z,17.26
2018-09-14T00:52:13.171Z,17.26
2018-09-14T00:52:17.269Z,17.25
2018-09-14T00:52:21.473Z,17.25
2018-09-14T00:52:25.463Z,17.25
2018-09-14T00:52:29.448Z,17.25
2018-09-14T00:52:33.675Z,17.24
2018-09-14T00:52:37.983Z,17.25
2018-09-14T00:52:42.180Z,17.25
2018-09-14T00:52:46.392Z,17.24
2018-09-14T00:52:50.696Z,17.25
2018-09-14T00:52:54.995Z,17.24
2018-09-14T00:52:59.302Z,17.24
2018-09-14T00:53:03.503Z,17.25
2018-09-14T00:53:07.706Z,17.24
2018-09-14T00:53:12.016Z,17.24
2018-09-14T00:53:16.323Z,17.24
2018-09-14T00:53:20.636Z,17.24
2018-09-14T00:53:24.953Z,17.24
2018-09-14T00:53:29.156Z,17.25
2018-09-14T00:53:33.357Z,17.24
2018-09-14T00:53:37.673Z,17.23
2018-09-14T00:53:41.655Z,17.23
2018-09-14T00:53:45.960Z,17.23
2018-09-14T00:53:50.163Z,17.24
2018-09-14T00:53:54.475Z,17.24
2018-09-14T00:53:58.569Z,17.23
2018-09-14T00:54:02.821Z,17.24
2018-09-14T00:54:07.080Z,17.23
2018-09-14T00:54:11.063Z,17.23
2018-09-14T00:54:15.380Z,17.23
2018-09-14T00:54:19.694Z,17.23
2018-09-14T00:54:24.006Z,17.23
2018-09-14T00:54:28.214Z,17.22